sensor_id;sensor_type;location;lat;lon;timestamp;temperature;humidity
17992;DHT22;9121;50.926;5.340;2024-01-30T00:00:11;10.00;99.90
17992;DHT22;9121;50.926;5.340;2024-01-30T00:02:38;10.00;99.90
17992;DHT22;9121;50.926;5.340;2024-01-30T00:05:05;10.00;99.90
17992;DHT22;9121;50.926;5.340;2024-01-30T00:07:34;10.00;99.90
17992;DHT22;9121;50.926;5.340;2024-01-30T00:10:02;10.00;99.90
17992;DHT22;9121;50.926;5.340;2024-01-30T00:12:31;10.00;99.90
17992;DHT22;9121;50.926;5.340;2024-01-30T00:14:58;9.90;99.90
17992;DHT22;9121;50.926;5.340;2024-01-30T00:17:26;9.90;99.90
17992;DHT22;9121;50.926;5.340;2024-01-30T00:19:53;9.90;99.90
17992;DHT22;9121;50.926;5.340;2024-01-30T00:22:20;9.90;99.90
17992;DHT22;9121;50.926;5.340;2024-01-30T00:24:49;10.00;99.90
17992;DHT22;9121;50.926;5.340;2024-01-30T00:27:16;10.00;99.90
17992;DHT22;9121;50.926;5.340;2024-01-30T00:29:43;10.00;99.90
17992;DHT22;9121;50.926;5.340;2024-01-30T00:32:10;10.00;99.90
17992;DHT22;9121;50.926;5.340;2024-01-30T00:34:37;10.00;99.90
17992;DHT22;9121;50.926;5.340;2024-01-30T00:37:04;10.00;99.90
17992;DHT22;9121;50.926;5.340;2024-01-30T00:39:32;10.00;99.90
17992;DHT22;9121;50.926;5.340;2024-01-30T00:42:00;10.00;99.90
17992;DHT22;9121;50.926;5.340;2024-01-30T00:44:26;10.00;99.90
17992;DHT22;9121;50.926;5.340;2024-01-30T00:46:53;10.00;99.90
17992;DHT22;9121;50.926;5.340;2024-01-30T00:49:20;10.00;99.90
17992;DHT22;9121;50.926;5.340;2024-01-30T00:51:47;10.00;99.90
17992;DHT22;9121;50.926;5.340;2024-01-30T00:54:14;10.00;99.90
17992;DHT22;9121;50.926;5.340;2024-01-30T00:56:41;10.00;99.90
17992;DHT22;9121;50.926;5.340;2024-01-30T00:59:11;10.00;99.90
17992;DHT22;9121;50.926;5.340;2024-01-30T01:01:38;9.90;99.90
17992;DHT22;9121;50.926;5.340;2024-01-30T01:04:05;10.00;99.90
17992;DHT22;9121;50.926;5.340;2024-01-30T01:06:33;9.90;99.90
17992;DHT22;9121;50.926;5.340;2024-01-30T01:09:00;10.00;99.90
17992;DHT22;9121;50.926;5.340;2024-01-30T01:11:28;10.00;99.90
17992;DHT22;9121;50.926;5.340;2024-01-30T01:13:55;9.90;99.90
17992;DHT22;9121;50.926;5.340;2024-01-30T01:16:24;9.90;99.90
17992;DHT22;9121;50.926;5.340;2024-01-30T01:18:51;9.90;99.90
17992;DHT22;9121;50.926;5.340;2024-01-30T01:21:18;9.80;99.90
17992;DHT22;9121;50.926;5.340;2024-01-30T01:23:45;9.80;99.90
17992;DHT22;9121;50.926;5.340;2024-01-30T01:26:12;9.80;99.90
17992;DHT22;9121;50.926;5.340;2024-01-30T01:28:40;9.70;99.90
17992;DHT22;9121;50.926;5.340;2024-01-30T01:31:07;9.80;99.90
17992;DHT22;9121;50.926;5.340;2024-01-30T01:33:36;9.70;99.90
17992;DHT22;9121;50.926;5.340;2024-01-30T01:36:04;9.80;99.90
17992;DHT22;9121;50.926;5.340;2024-01-30T01:38:32;9.70;99.90
17992;DHT22;9121;50.926;5.340;2024-01-30T01:40:59;9.70;99.90
17992;DHT22;9121;50.926;5.340;2024-01-30T01:43:26;9.70;99.90
17992;DHT22;9121;50.926;5.340;2024-01-30T01:45:53;9.80;99.90
17992;DHT22;9121;50.926;5.340;2024-01-30T01:48:20;9.70;99.90
17992;DHT22;9121;50.926;5.340;2024-01-30T01:50:49;9.80;99.90
17992;DHT22;9121;50.926;5.340;2024-01-30T01:53:16;9.80;99.90
17992;DHT22;9121;50.926;5.340;2024-01-30T01:55:45;9.80;99.90
17992;DHT22;9121;50.926;5.340;2024-01-30T01:58:13;9.80;99.90
17992;DHT22;9121;50.926;5.340;2024-01-30T02:00:40;9.80;99.90
17992;DHT22;9121;50.926;5.340;2024-01-30T02:03:10;9.80;99.90
17992;DHT22;9121;50.926;5.340;2024-01-30T02:05:38;9.80;99.90
17992;DHT22;9121;50.926;5.340;2024-01-30T02:08:08;9.90;99.90
17992;DHT22;9121;50.926;5.340;2024-01-30T02:10:35;9.90;99.90
17992;DHT22;9121;50.926;5.340;2024-01-30T02:13:02;9.90;99.90
17992;DHT22;9121;50.926;5.340;2024-01-30T02:15:30;9.90;99.90
17992;DHT22;9121;50.926;5.340;2024-01-30T02:17:57;10.00;99.90
17992;DHT22;9121;50.926;5.340;2024-01-30T02:20:25;10.00;99.90
17992;DHT22;9121;50.926;5.340;2024-01-30T02:22:54;10.00;99.90
17992;DHT22;9121;50.926;5.340;2024-01-30T02:25:30;10.00;99.90
17992;DHT22;9121;50.926;5.340;2024-01-30T02:27:57;10.00;99.90
17992;DHT22;9121;50.926;5.340;2024-01-30T02:30:24;10.00;99.90
17992;DHT22;9121;50.926;5.340;2024-01-30T02:32:51;10.00;99.90
17992;DHT22;9121;50.926;5.340;2024-01-30T02:35:18;10.00;99.90
17992;DHT22;9121;50.926;5.340;2024-01-30T02:37:45;10.00;99.90
17992;DHT22;9121;50.926;5.340;2024-01-30T02:40:14;10.10;99.90
17992;DHT22;9121;50.926;5.340;2024-01-30T02:42:40;10.10;99.90
17992;DHT22;9121;50.926;5.340;2024-01-30T02:45:09;10.10;99.90
17992;DHT22;9121;50.926;5.340;2024-01-30T02:47:36;10.10;99.90
17992;DHT22;9121;50.926;5.340;2024-01-30T02:50:04;10.20;99.90
17992;DHT22;9121;50.926;5.340;2024-01-30T02:52:31;10.20;99.90
17992;DHT22;9121;50.926;5.340;2024-01-30T02:54:58;10.20;99.90
17992;DHT22;9121;50.926;5.340;2024-01-30T02:57:26;10.20;99.90
17992;DHT22;9121;50.926;5.340;2024-01-30T02:59:53;10.30;99.90
17992;DHT22;9121;50.926;5.340;2024-01-30T03:02:20;10.30;99.90
17992;DHT22;9121;50.926;5.340;2024-01-30T03:04:47;10.30;99.90
17992;DHT22;9121;50.926;5.340;2024-01-30T03:07:14;10.40;99.90
17992;DHT22;9121;50.926;5.340;2024-01-30T03:09:42;10.40;99.90
17992;DHT22;9121;50.926;5.340;2024-01-30T03:12:09;10.40;99.90
17992;DHT22;9121;50.926;5.340;2024-01-30T03:14:38;10.40;99.90
17992;DHT22;9121;50.926;5.340;2024-01-30T03:17:05;10.40;99.90
17992;DHT22;9121;50.926;5.340;2024-01-30T03:19:31;10.40;99.90
17992;DHT22;9121;50.926;5.340;2024-01-30T03:21:58;10.40;99.90
17992;DHT22;9121;50.926;5.340;2024-01-30T03:24:25;10.40;99.90
17992;DHT22;9121;50.926;5.340;2024-01-30T03:26:53;10.40;99.90
17992;DHT22;9121;50.926;5.340;2024-01-30T03:29:20;10.30;99.90
17992;DHT22;9121;50.926;5.340;2024-01-30T03:31:48;10.30;99.90
17992;DHT22;9121;50.926;5.340;2024-01-30T03:34:15;10.30;99.90
17992;DHT22;9121;50.926;5.340;2024-01-30T03:36:42;10.30;99.90
17992;DHT22;9121;50.926;5.340;2024-01-30T03:39:09;10.30;99.90
17992;DHT22;9121;50.926;5.340;2024-01-30T03:41:36;10.30;99.90
17992;DHT22;9121;50.926;5.340;2024-01-30T03:44:03;10.30;99.90
17992;DHT22;9121;50.926;5.340;2024-01-30T03:46:30;10.30;99.90
17992;DHT22;9121;50.926;5.340;2024-01-30T03:48:59;10.30;99.90
17992;DHT22;9121;50.926;5.340;2024-01-30T03:51:25;10.30;99.90
17992;DHT22;9121;50.926;5.340;2024-01-30T03:53:52;10.20;99.90
17992;DHT22;9121;50.926;5.340;2024-01-30T03:56:20;10.20;99.90
17992;DHT22;9121;50.926;5.340;2024-01-30T03:58:47;10.20;99.90
17992;DHT22;9121;50.926;5.340;2024-01-30T04:01:14;10.20;99.90
17992;DHT22;9121;50.926;5.340;2024-01-30T04:03:41;10.20;99.90
17992;DHT22;9121;50.926;5.340;2024-01-30T04:06:08;10.20;99.90
17992;DHT22;9121;50.926;5.340;2024-01-30T04:08:36;10.20;99.90
17992;DHT22;9121;50.926;5.340;2024-01-30T04:11:04;10.20;99.90
17992;DHT22;9121;50.926;5.340;2024-01-30T04:13:32;10.20;99.90
17992;DHT22;9121;50.926;5.340;2024-01-30T04:15:59;10.20;99.90
17992;DHT22;9121;50.926;5.340;2024-01-30T04:18:27;10.10;99.90
17992;DHT22;9121;50.926;5.340;2024-01-30T04:20:54;10.10;99.90
17992;DHT22;9121;50.926;5.340;2024-01-30T04:23:22;10.10;99.90
17992;DHT22;9121;50.926;5.340;2024-01-30T04:25:49;10.10;99.90
17992;DHT22;9121;50.926;5.340;2024-01-30T04:28:16;10.10;99.90
17992;DHT22;9121;50.926;5.340;2024-01-30T04:30:43;10.10;99.90
17992;DHT22;9121;50.926;5.340;2024-01-30T04:33:10;10.10;99.90
17992;DHT22;9121;50.926;5.340;2024-01-30T04:35:37;10.10;99.90
17992;DHT22;9121;50.926;5.340;2024-01-30T04:38:04;10.10;99.90
17992;DHT22;9121;50.926;5.340;2024-01-30T04:40:33;10.10;99.90
17992;DHT22;9121;50.926;5.340;2024-01-30T04:42:59;10.10;99.90
17992;DHT22;9121;50.926;5.340;2024-01-30T04:45:26;10.10;99.90
17992;DHT22;9121;50.926;5.340;2024-01-30T04:47:53;10.10;99.90
17992;DHT22;9121;50.926;5.340;2024-01-30T04:50:20;10.10;99.90
17992;DHT22;9121;50.926;5.340;2024-01-30T04:52:47;10.10;99.90
17992;DHT22;9121;50.926;5.340;2024-01-30T04:55:14;10.20;99.90
17992;DHT22;9121;50.926;5.340;2024-01-30T04:57:43;10.10;99.90
17992;DHT22;9121;50.926;5.340;2024-01-30T05:00:10;10.20;99.90
17992;DHT22;9121;50.926;5.340;2024-01-30T05:02:38;10.20;99.90
17992;DHT22;9121;50.926;5.340;2024-01-30T05:05:05;10.20;99.90
17992;DHT22;9121;50.926;5.340;2024-01-30T05:07:33;10.20;99.90
17992;DHT22;9121;50.926;5.340;2024-01-30T05:10:00;10.20;99.90
17992;DHT22;9121;50.926;5.340;2024-01-30T05:12:27;10.20;99.90
17992;DHT22;9121;50.926;5.340;2024-01-30T05:14:55;10.20;99.90
17992;DHT22;9121;50.926;5.340;2024-01-30T05:17:22;10.20;99.90
17992;DHT22;9121;50.926;5.340;2024-01-30T05:19:49;10.20;99.90
17992;DHT22;9121;50.926;5.340;2024-01-30T05:22:16;10.20;99.90
17992;DHT22;9121;50.926;5.340;2024-01-30T05:24:44;10.10;99.90
17992;DHT22;9121;50.926;5.340;2024-01-30T05:27:11;10.20;99.90
17992;DHT22;9121;50.926;5.340;2024-01-30T05:29:39;10.20;99.90
17992;DHT22;9121;50.926;5.340;2024-01-30T05:32:07;10.20;99.90
17992;DHT22;9121;50.926;5.340;2024-01-30T05:34:35;10.20;99.90
17992;DHT22;9121;50.926;5.340;2024-01-30T05:37:03;10.20;99.90
17992;DHT22;9121;50.926;5.340;2024-01-30T05:39:30;10.20;99.90
17992;DHT22;9121;50.926;5.340;2024-01-30T05:41:58;10.20;99.90
17992;DHT22;9121;50.926;5.340;2024-01-30T05:44:25;10.20;99.90
17992;DHT22;9121;50.926;5.340;2024-01-30T05:46:52;10.20;99.90
17992;DHT22;9121;50.926;5.340;2024-01-30T05:49:20;10.20;99.90
17992;DHT22;9121;50.926;5.340;2024-01-30T05:51:47;10.20;99.90
17992;DHT22;9121;50.926;5.340;2024-01-30T05:54:14;10.30;99.90
17992;DHT22;9121;50.926;5.340;2024-01-30T05:56:41;10.30;99.90
17992;DHT22;9121;50.926;5.340;2024-01-30T05:59:08;10.30;99.90
17992;DHT22;9121;50.926;5.340;2024-01-30T06:01:35;10.30;99.90
17992;DHT22;9121;50.926;5.340;2024-01-30T06:04:02;10.30;99.90
17992;DHT22;9121;50.926;5.340;2024-01-30T06:06:30;10.30;99.90
17992;DHT22;9121;50.926;5.340;2024-01-30T06:08:57;10.30;99.90
17992;DHT22;9121;50.926;5.340;2024-01-30T06:11:24;10.40;99.90
17992;DHT22;9121;50.926;5.340;2024-01-30T06:13:51;10.40;99.90
17992;DHT22;9121;50.926;5.340;2024-01-30T06:16:18;10.40;99.90
17992;DHT22;9121;50.926;5.340;2024-01-30T06:18:46;10.40;99.90
17992;DHT22;9121;50.926;5.340;2024-01-30T06:21:13;10.40;99.90
17992;DHT22;9121;50.926;5.340;2024-01-30T06:23:41;10.40;99.90
17992;DHT22;9121;50.926;5.340;2024-01-30T06:26:08;10.50;99.90
17992;DHT22;9121;50.926;5.340;2024-01-30T06:28:36;10.50;99.90
17992;DHT22;9121;50.926;5.340;2024-01-30T06:31:03;10.40;99.90
17992;DHT22;9121;50.926;5.340;2024-01-30T06:33:30;10.40;99.90
17992;DHT22;9121;50.926;5.340;2024-01-30T06:35:57;10.50;99.90
17992;DHT22;9121;50.926;5.340;2024-01-30T06:38:24;10.50;99.90
17992;DHT22;9121;50.926;5.340;2024-01-30T06:40:52;10.40;99.90
17992;DHT22;9121;50.926;5.340;2024-01-30T06:43:19;10.50;99.90
17992;DHT22;9121;50.926;5.340;2024-01-30T06:45:46;10.50;99.90
17992;DHT22;9121;50.926;5.340;2024-01-30T06:48:13;10.50;99.90
17992;DHT22;9121;50.926;5.340;2024-01-30T06:50:40;10.50;99.90
17992;DHT22;9121;50.926;5.340;2024-01-30T06:53:07;10.50;99.90
17992;DHT22;9121;50.926;5.340;2024-01-30T06:55:34;10.50;99.90
17992;DHT22;9121;50.926;5.340;2024-01-30T06:58:02;10.50;99.90
17992;DHT22;9121;50.926;5.340;2024-01-30T07:00:29;10.50;99.90
17992;DHT22;9121;50.926;5.340;2024-01-30T07:02:56;10.50;99.90
17992;DHT22;9121;50.926;5.340;2024-01-30T07:05:23;10.50;99.90
17992;DHT22;9121;50.926;5.340;2024-01-30T07:07:50;10.50;99.90
17992;DHT22;9121;50.926;5.340;2024-01-30T07:10:17;10.50;99.90
17992;DHT22;9121;50.926;5.340;2024-01-30T07:12:43;10.50;99.90
17992;DHT22;9121;50.926;5.340;2024-01-30T07:15:12;10.50;99.90
17992;DHT22;9121;50.926;5.340;2024-01-30T07:17:42;10.50;99.90
17992;DHT22;9121;50.926;5.340;2024-01-30T07:20:09;10.50;99.90
17992;DHT22;9121;50.926;5.340;2024-01-30T07:22:36;10.50;99.90
17992;DHT22;9121;50.926;5.340;2024-01-30T07:25:04;10.60;99.90
17992;DHT22;9121;50.926;5.340;2024-01-30T07:27:31;10.60;99.90
17992;DHT22;9121;50.926;5.340;2024-01-30T07:29:58;10.60;99.90
17992;DHT22;9121;50.926;5.340;2024-01-30T07:32:26;10.60;99.90
17992;DHT22;9121;50.926;5.340;2024-01-30T07:34:54;10.60;99.90
17992;DHT22;9121;50.926;5.340;2024-01-30T07:37:20;10.60;99.90
17992;DHT22;9121;50.926;5.340;2024-01-30T07:39:47;10.60;99.90
17992;DHT22;9121;50.926;5.340;2024-01-30T07:42:14;10.70;99.90
17992;DHT22;9121;50.926;5.340;2024-01-30T07:44:41;10.70;99.90
17992;DHT22;9121;50.926;5.340;2024-01-30T07:47:08;10.70;99.90
17992;DHT22;9121;50.926;5.340;2024-01-30T07:49:41;10.70;99.90
17992;DHT22;9121;50.926;5.340;2024-01-30T07:52:08;10.70;99.90
17992;DHT22;9121;50.926;5.340;2024-01-30T07:54:35;10.70;99.90
17992;DHT22;9121;50.926;5.340;2024-01-30T07:57:16;10.70;99.90
17992;DHT22;9121;50.926;5.340;2024-01-30T07:59:43;10.80;99.90
17992;DHT22;9121;50.926;5.340;2024-01-30T08:02:11;10.80;99.90
17992;DHT22;9121;50.926;5.340;2024-01-30T08:04:40;10.80;99.90
17992;DHT22;9121;50.926;5.340;2024-01-30T08:07:07;10.80;99.90
17992;DHT22;9121;50.926;5.340;2024-01-30T08:09:34;10.90;99.90
17992;DHT22;9121;50.926;5.340;2024-01-30T08:12:01;10.90;99.90
17992;DHT22;9121;50.926;5.340;2024-01-30T08:14:28;10.90;99.90
17992;DHT22;9121;50.926;5.340;2024-01-30T08:16:55;10.90;99.90
17992;DHT22;9121;50.926;5.340;2024-01-30T08:19:22;10.90;99.90
17992;DHT22;9121;50.926;5.340;2024-01-30T08:21:50;11.00;99.90
17992;DHT22;9121;50.926;5.340;2024-01-30T08:24:18;11.00;99.90
17992;DHT22;9121;50.926;5.340;2024-01-30T08:26:45;11.00;99.90
17992;DHT22;9121;50.926;5.340;2024-01-30T08:29:12;11.00;99.90
17992;DHT22;9121;50.926;5.340;2024-01-30T08:31:39;11.00;99.90
17992;DHT22;9121;50.926;5.340;2024-01-30T08:34:06;11.00;99.90
17992;DHT22;9121;50.926;5.340;2024-01-30T08:36:33;11.00;99.90
17992;DHT22;9121;50.926;5.340;2024-01-30T08:39:01;11.10;99.90
17992;DHT22;9121;50.926;5.340;2024-01-30T08:41:31;11.10;99.90
17992;DHT22;9121;50.926;5.340;2024-01-30T08:43:58;11.10;99.90
17992;DHT22;9121;50.926;5.340;2024-01-30T08:46:24;11.10;99.90
17992;DHT22;9121;50.926;5.340;2024-01-30T08:48:51;11.10;99.90
17992;DHT22;9121;50.926;5.340;2024-01-30T08:51:18;11.10;99.90
17992;DHT22;9121;50.926;5.340;2024-01-30T08:53:45;11.10;99.90
17992;DHT22;9121;50.926;5.340;2024-01-30T08:56:14;11.20;99.90
17992;DHT22;9121;50.926;5.340;2024-01-30T08:58:42;11.20;99.90
17992;DHT22;9121;50.926;5.340;2024-01-30T09:01:08;11.20;99.90
17992;DHT22;9121;50.926;5.340;2024-01-30T09:03:36;11.30;99.90
17992;DHT22;9121;50.926;5.340;2024-01-30T09:06:08;11.30;99.90
17992;DHT22;9121;50.926;5.340;2024-01-30T09:08:35;11.30;99.90
17992;DHT22;9121;50.926;5.340;2024-01-30T09:11:07;11.40;99.90
17992;DHT22;9121;50.926;5.340;2024-01-30T09:13:36;11.40;99.90
17992;DHT22;9121;50.926;5.340;2024-01-30T09:16:04;11.50;99.90
17992;DHT22;9121;50.926;5.340;2024-01-30T09:18:31;11.50;99.90
17992;DHT22;9121;50.926;5.340;2024-01-30T09:20:58;11.50;99.90
17992;DHT22;9121;50.926;5.340;2024-01-30T09:23:25;11.50;99.90
17992;DHT22;9121;50.926;5.340;2024-01-30T09:25:52;11.60;99.90
17992;DHT22;9121;50.926;5.340;2024-01-30T09:28:19;11.60;99.90
17992;DHT22;9121;50.926;5.340;2024-01-30T09:30:47;11.60;99.90
17992;DHT22;9121;50.926;5.340;2024-01-30T09:33:14;11.60;99.90
17992;DHT22;9121;50.926;5.340;2024-01-30T09:35:41;11.60;99.90
17992;DHT22;9121;50.926;5.340;2024-01-30T09:38:08;11.70;99.90
17992;DHT22;9121;50.926;5.340;2024-01-30T09:40:36;11.70;99.90
17992;DHT22;9121;50.926;5.340;2024-01-30T09:43:03;11.70;99.90
17992;DHT22;9121;50.926;5.340;2024-01-30T09:45:32;11.80;99.90
17992;DHT22;9121;50.926;5.340;2024-01-30T09:48:01;11.80;99.90
17992;DHT22;9121;50.926;5.340;2024-01-30T09:50:29;11.90;99.90
17992;DHT22;9121;50.926;5.340;2024-01-30T09:52:57;11.90;99.90
17992;DHT22;9121;50.926;5.340;2024-01-30T09:55:25;11.90;99.90
17992;DHT22;9121;50.926;5.340;2024-01-30T09:57:53;11.90;99.90
17992;DHT22;9121;50.926;5.340;2024-01-30T10:00:20;12.00;99.90
17992;DHT22;9121;50.926;5.340;2024-01-30T10:02:52;12.00;99.90
17992;DHT22;9121;50.926;5.340;2024-01-30T10:05:26;12.10;99.90
17992;DHT22;9121;50.926;5.340;2024-01-30T10:07:54;12.20;99.90
17992;DHT22;9121;50.926;5.340;2024-01-30T10:10:22;12.20;99.90
17992;DHT22;9121;50.926;5.340;2024-01-30T10:12:49;12.20;99.90
17992;DHT22;9121;50.926;5.340;2024-01-30T10:15:17;12.20;99.90
17992;DHT22;9121;50.926;5.340;2024-01-30T10:17:44;12.30;99.90
17992;DHT22;9121;50.926;5.340;2024-01-30T10:20:12;12.30;99.90
17992;DHT22;9121;50.926;5.340;2024-01-30T10:22:41;12.40;99.90
17992;DHT22;9121;50.926;5.340;2024-01-30T10:25:10;12.40;99.90
17992;DHT22;9121;50.926;5.340;2024-01-30T10:27:39;12.40;99.90
17992;DHT22;9121;50.926;5.340;2024-01-30T10:30:07;12.40;99.90
17992;DHT22;9121;50.926;5.340;2024-01-30T10:32:34;12.40;99.90
17992;DHT22;9121;50.926;5.340;2024-01-30T10:35:02;12.50;99.90
17992;DHT22;9121;50.926;5.340;2024-01-30T10:37:30;12.40;99.90
17992;DHT22;9121;50.926;5.340;2024-01-30T10:40:03;12.40;99.90
17992;DHT22;9121;50.926;5.340;2024-01-30T10:42:32;12.40;99.90
17992;DHT22;9121;50.926;5.340;2024-01-30T10:45:05;12.40;99.90
17992;DHT22;9121;50.926;5.340;2024-01-30T10:47:34;12.40;99.90
17992;DHT22;9121;50.926;5.340;2024-01-30T10:50:03;12.40;99.90
17992;DHT22;9121;50.926;5.340;2024-01-30T10:52:30;12.40;99.90
17992;DHT22;9121;50.926;5.340;2024-01-30T10:54:59;12.40;99.90
17992;DHT22;9121;50.926;5.340;2024-01-30T10:57:27;12.40;99.90
17992;DHT22;9121;50.926;5.340;2024-01-30T10:59:57;12.40;99.90
17992;DHT22;9121;50.926;5.340;2024-01-30T11:02:25;12.40;99.90
17992;DHT22;9121;50.926;5.340;2024-01-30T11:04:58;12.40;99.90
17992;DHT22;9121;50.926;5.340;2024-01-30T11:07:26;12.30;99.90
17992;DHT22;9121;50.926;5.340;2024-01-30T11:09:59;12.30;99.90
17992;DHT22;9121;50.926;5.340;2024-01-30T11:12:29;12.30;99.90
17992;DHT22;9121;50.926;5.340;2024-01-30T11:15:06;12.30;99.90
17992;DHT22;9121;50.926;5.340;2024-01-30T11:17:50;12.30;99.90
17992;DHT22;9121;50.926;5.340;2024-01-30T11:20:20;12.30;99.90
17992;DHT22;9121;50.926;5.340;2024-01-30T11:22:49;12.20;99.90
17992;DHT22;9121;50.926;5.340;2024-01-30T11:25:17;12.20;99.90
17992;DHT22;9121;50.926;5.340;2024-01-30T11:27:46;12.20;99.90
17992;DHT22;9121;50.926;5.340;2024-01-30T11:30:23;12.20;99.90
17992;DHT22;9121;50.926;5.340;2024-01-30T11:33:00;12.20;99.90
17992;DHT22;9121;50.926;5.340;2024-01-30T11:35:30;12.20;99.90
17992;DHT22;9121;50.926;5.340;2024-01-30T11:37:58;12.20;99.90
17992;DHT22;9121;50.926;5.340;2024-01-30T11:40:27;12.20;99.90
17992;DHT22;9121;50.926;5.340;2024-01-30T11:42:56;12.20;99.90
17992;DHT22;9121;50.926;5.340;2024-01-30T11:45:24;12.30;99.90
17992;DHT22;9121;50.926;5.340;2024-01-30T11:47:51;12.30;99.90
17992;DHT22;9121;50.926;5.340;2024-01-30T11:50:19;12.20;99.90
17992;DHT22;9121;50.926;5.340;2024-01-30T11:52:46;12.30;99.90
17992;DHT22;9121;50.926;5.340;2024-01-30T11:55:14;12.20;99.90
17992;DHT22;9121;50.926;5.340;2024-01-30T11:57:41;12.20;99.90
17992;DHT22;9121;50.926;5.340;2024-01-30T12:00:16;12.30;99.90
17992;DHT22;9121;50.926;5.340;2024-01-30T12:02:44;12.20;99.90
17992;DHT22;9121;50.926;5.340;2024-01-30T12:05:15;12.20;99.90
17992;DHT22;9121;50.926;5.340;2024-01-30T12:07:44;12.20;99.90
17992;DHT22;9121;50.926;5.340;2024-01-30T12:10:12;12.20;99.90
17992;DHT22;9121;50.926;5.340;2024-01-30T12:12:40;12.30;99.90
17992;DHT22;9121;50.926;5.340;2024-01-30T12:15:08;12.30;99.90
17992;DHT22;9121;50.926;5.340;2024-01-30T12:17:37;12.20;99.90
17992;DHT22;9121;50.926;5.340;2024-01-30T12:20:04;12.30;99.90
17992;DHT22;9121;50.926;5.340;2024-01-30T12:22:35;12.40;99.90
17992;DHT22;9121;50.926;5.340;2024-01-30T12:25:04;12.50;99.90
17992;DHT22;9121;50.926;5.340;2024-01-30T12:27:31;12.50;99.90
17992;DHT22;9121;50.926;5.340;2024-01-30T12:29:58;12.50;99.90
17992;DHT22;9121;50.926;5.340;2024-01-30T12:32:25;12.40;99.90
17992;DHT22;9121;50.926;5.340;2024-01-30T12:34:56;12.40;99.90
17992;DHT22;9121;50.926;5.340;2024-01-30T12:37:24;12.30;99.90
17992;DHT22;9121;50.926;5.340;2024-01-30T12:39:52;12.30;99.90
17992;DHT22;9121;50.926;5.340;2024-01-30T12:42:20;12.20;99.90
17992;DHT22;9121;50.926;5.340;2024-01-30T12:44:48;12.10;99.90
17992;DHT22;9121;50.926;5.340;2024-01-30T12:47:15;12.20;99.90
17992;DHT22;9121;50.926;5.340;2024-01-30T12:49:43;12.20;99.90
17992;DHT22;9121;50.926;5.340;2024-01-30T12:52:11;12.10;99.90
17992;DHT22;9121;50.926;5.340;2024-01-30T12:54:38;12.10;99.90
17992;DHT22;9121;50.926;5.340;2024-01-30T12:57:05;12.10;99.90
17992;DHT22;9121;50.926;5.340;2024-01-30T12:59:32;12.10;99.90
17992;DHT22;9121;50.926;5.340;2024-01-30T13:02:00;12.10;99.90
17992;DHT22;9121;50.926;5.340;2024-01-30T13:04:29;12.10;99.90
17992;DHT22;9121;50.926;5.340;2024-01-30T13:06:56;12.00;99.90
17992;DHT22;9121;50.926;5.340;2024-01-30T13:09:24;12.10;99.90
17992;DHT22;9121;50.926;5.340;2024-01-30T13:11:52;12.20;99.90
17992;DHT22;9121;50.926;5.340;2024-01-30T13:14:19;12.30;99.90
17992;DHT22;9121;50.926;5.340;2024-01-30T13:16:46;12.30;99.90
17992;DHT22;9121;50.926;5.340;2024-01-30T13:19:13;12.20;99.90
17992;DHT22;9121;50.926;5.340;2024-01-30T13:21:40;12.30;99.90
17992;DHT22;9121;50.926;5.340;2024-01-30T13:24:07;12.30;99.90
17992;DHT22;9121;50.926;5.340;2024-01-30T13:26:36;12.40;99.90
17992;DHT22;9121;50.926;5.340;2024-01-30T13:29:03;12.30;99.90
17992;DHT22;9121;50.926;5.340;2024-01-30T13:31:30;12.30;99.90
17992;DHT22;9121;50.926;5.340;2024-01-30T13:33:57;12.30;99.90
17992;DHT22;9121;50.926;5.340;2024-01-30T13:36:24;12.40;99.90
17992;DHT22;9121;50.926;5.340;2024-01-30T13:38:51;12.40;99.90
17992;DHT22;9121;50.926;5.340;2024-01-30T13:41:18;12.40;99.90
17992;DHT22;9121;50.926;5.340;2024-01-30T13:43:48;12.40;99.90
17992;DHT22;9121;50.926;5.340;2024-01-30T13:46:15;12.30;99.90
17992;DHT22;9121;50.926;5.340;2024-01-30T13:48:42;12.30;99.90
17992;DHT22;9121;50.926;5.340;2024-01-30T13:51:09;12.40;99.90
17992;DHT22;9121;50.926;5.340;2024-01-30T13:53:36;12.40;99.90
17992;DHT22;9121;50.926;5.340;2024-01-30T13:56:04;12.40;99.90
17992;DHT22;9121;50.926;5.340;2024-01-30T13:58:33;12.40;99.90
17992;DHT22;9121;50.926;5.340;2024-01-30T14:01:03;12.30;99.90
17992;DHT22;9121;50.926;5.340;2024-01-30T14:03:31;12.40;99.90
17992;DHT22;9121;50.926;5.340;2024-01-30T14:05:59;12.30;99.90
17992;DHT22;9121;50.926;5.340;2024-01-30T14:08:27;12.20;99.90
17992;DHT22;9121;50.926;5.340;2024-01-30T14:10:54;12.10;99.90
17992;DHT22;9121;50.926;5.340;2024-01-30T14:13:21;12.40;99.90
17992;DHT22;9121;50.926;5.340;2024-01-30T14:15:50;12.50;99.90
17992;DHT22;9121;50.926;5.340;2024-01-30T14:18:19;12.40;99.90
17992;DHT22;9121;50.926;5.340;2024-01-30T14:20:46;12.40;99.90
17992;DHT22;9121;50.926;5.340;2024-01-30T14:23:13;12.30;99.90
17992;DHT22;9121;50.926;5.340;2024-01-30T14:25:40;12.30;99.90
17992;DHT22;9121;50.926;5.340;2024-01-30T14:28:07;12.30;99.90
17992;DHT22;9121;50.926;5.340;2024-01-30T14:30:33;12.20;99.90
17992;DHT22;9121;50.926;5.340;2024-01-30T14:33:01;12.20;99.90
17992;DHT22;9121;50.926;5.340;2024-01-30T14:35:29;12.10;99.90
17992;DHT22;9121;50.926;5.340;2024-01-30T14:37:56;12.10;99.90
17992;DHT22;9121;50.926;5.340;2024-01-30T14:40:23;12.00;99.90
17992;DHT22;9121;50.926;5.340;2024-01-30T14:42:50;12.00;99.90
17992;DHT22;9121;50.926;5.340;2024-01-30T14:45:17;12.00;99.90
17992;DHT22;9121;50.926;5.340;2024-01-30T14:47:45;12.00;99.90
17992;DHT22;9121;50.926;5.340;2024-01-30T14:50:12;11.90;99.90
17992;DHT22;9121;50.926;5.340;2024-01-30T14:52:41;11.90;99.90
17992;DHT22;9121;50.926;5.340;2024-01-30T14:55:08;11.90;99.90
17992;DHT22;9121;50.926;5.340;2024-01-30T14:57:35;11.80;99.90
17992;DHT22;9121;50.926;5.340;2024-01-30T15:00:04;11.80;99.90
17992;DHT22;9121;50.926;5.340;2024-01-30T15:02:31;11.80;99.90
17992;DHT22;9121;50.926;5.340;2024-01-30T15:04:58;11.80;99.90
17992;DHT22;9121;50.926;5.340;2024-01-30T15:07:25;11.70;99.90
17992;DHT22;9121;50.926;5.340;2024-01-30T15:09:54;11.70;99.90
17992;DHT22;9121;50.926;5.340;2024-01-30T15:12:21;11.70;99.90
17992;DHT22;9121;50.926;5.340;2024-01-30T15:14:48;11.80;99.90
17992;DHT22;9121;50.926;5.340;2024-01-30T15:17:17;11.70;99.90
17992;DHT22;9121;50.926;5.340;2024-01-30T15:19:44;11.70;99.90
17992;DHT22;9121;50.926;5.340;2024-01-30T15:22:11;11.60;99.90
17992;DHT22;9121;50.926;5.340;2024-01-30T15:24:38;11.60;99.90
17992;DHT22;9121;50.926;5.340;2024-01-30T15:27:06;11.70;99.90
17992;DHT22;9121;50.926;5.340;2024-01-30T15:29:34;11.60;99.90
17992;DHT22;9121;50.926;5.340;2024-01-30T15:32:01;11.50;99.90
17992;DHT22;9121;50.926;5.340;2024-01-30T15:34:28;11.50;99.90
17992;DHT22;9121;50.926;5.340;2024-01-30T15:36:55;11.40;99.90
17992;DHT22;9121;50.926;5.340;2024-01-30T15:39:22;11.40;99.90
17992;DHT22;9121;50.926;5.340;2024-01-30T15:41:49;11.40;99.90
17992;DHT22;9121;50.926;5.340;2024-01-30T15:44:17;11.40;99.90
17992;DHT22;9121;50.926;5.340;2024-01-30T15:46:44;11.40;99.90
17992;DHT22;9121;50.926;5.340;2024-01-30T15:49:11;11.30;99.90